Time;durP1;ratioP1;P1;durP2;ratioP2;P2;SDS_P1;SDS_P2;PMS_P1;PMS_P2;Temp;Humidity;BMP_temperature;BMP_pressure;BME280_temperature;BME280_humidity;BME280_pressure;Samples;Min_cycle;Max_cycle;Signal;HPM_P1;HPM_P2
2023/12/31 00:00:59;;;;;;;6.32;3.60;;;;;;;6.85;100.00;100502.72;4891153;29;20057;-81
2023/12/31 00:03:27;;;;;;;4.70;3.28;;;;;;;6.86;100.00;100488.75;4862610;29;20052;-80
2023/12/31 00:05:55;;;;;;;4.47;3.40;;;;;;;6.87;100.00;100494.00;4880373;29;20056;-80
2023/12/31 00:08:22;;;;;;;5.22;3.60;;;;;;;6.90;100.00;100485.28;4845445;29;20127;-81
2023/12/31 00:10:50;;;;;;;6.25;3.25;;;;;;;6.91;100.00;100485.31;4861082;29;20447;-80
2023/12/31 00:13:17;;;;;;;5.90;2.80;;;;;;;6.92;100.00;100483.56;4862044;29;20045;-80
2023/12/31 00:15:45;;;;;;;6.38;3.15;;;;;;;6.95;100.00;100481.00;4869092;29;20045;-80
2023/12/31 00:18:14;;;;;;;7.72;3.28;;;;;;;6.95;100.00;100476.63;4893574;29;20025;-81
2023/12/31 00:20:41;;;;;;;7.68;3.67;;;;;;;6.98;100.00;100460.97;4861275;29;20048;-82
2023/12/31 00:23:11;;;;;;;6.68;3.17;;;;;;;6.98;100.00;100463.59;4859803;29;20053;-81
2023/12/31 00:25:39;;;;;;;3.47;3.17;;;;;;;6.99;100.00;100454.88;4856365;29;20040;-82
2023/12/31 00:28:07;;;;;;;4.22;2.78;;;;;;;6.98;100.00;100458.34;4878723;29;20056;-81
2023/12/31 00:30:35;;;;;;;5.22;2.65;;;;;;;6.96;100.00;100460.06;4872302;29;20056;-81
2023/12/31 00:33:03;;;;;;;8.18;3.17;;;;;;;6.95;100.00;100458.28;4868652;29;20513;-81
2023/12/31 00:35:31;;;;;;;6.50;2.80;;;;;;;6.93;100.00;100452.16;4881415;29;20040;-81
2023/12/31 00:37:59;;;;;;;3.85;2.55;;;;;;;6.94;100.00;100456.56;4852600;29;20064;-82
2023/12/31 00:40:29;;;;;;;3.35;2.58;;;;;;;6.94;100.00;100446.06;4884022;29;20047;-81
2023/12/31 00:42:56;;;;;;;7.00;3.58;;;;;;;6.94;100.00;100446.06;4872796;29;20049;-81
2023/12/31 00:45:24;;;;;;;3.35;3.05;;;;;;;6.95;100.00;100441.72;4880637;29;20422;-82
2023/12/31 00:47:51;;;;;;;8.82;3.35;;;;;;;6.94;100.00;100446.06;4875061;29;20435;-81
2023/12/31 00:50:19;;;;;;;7.78;2.92;;;;;;;6.95;100.00;100446.94;4879612;29;20052;-80
2023/12/31 00:52:46;;;;;;;2.80;2.45;;;;;;;6.96;100.00;100454.84;4848964;29;20798;-81
2023/12/31 00:55:14;;;;;;;6.00;3.17;;;;;;;6.97;100.00;100440.84;4851915;29;20053;-80
2023/12/31 00:57:42;;;;;;;7.75;3.35;;;;;;;6.98;100.00;100445.25;4863773;29;20410;-80
2023/12/31 01:00:10;;;;;;;5.28;3.38;;;;;;;7.00;100.00;100440.91;4863508;29;20049;-81
2023/12/31 01:02:37;;;;;;;6.88;3.30;;;;;;;7.01;100.00;100442.66;4858054;29;20519;-82
2023/12/31 01:05:05;;;;;;;6.65;3.25;;;;;;;7.02;100.00;100443.53;4862491;29;20039;-81
2023/12/31 01:07:33;;;;;;;4.15;2.95;;;;;;;7.03;100.00;100435.69;4853687;29;20064;-80
2023/12/31 01:10:01;;;;;;;5.78;3.28;;;;;;;7.03;100.00;100425.22;4828731;29;20045;-81
2023/12/31 01:12:28;;;;;;;4.30;3.10;;;;;;;7.05;100.00;100426.97;4854364;29;20052;-82
2023/12/31 01:14:56;;;;;;;5.53;3.38;;;;;;;7.03;100.00;100409.50;4860763;29;20057;-83
2023/12/31 01:17:24;;;;;;;8.90;3.42;;;;;;;7.03;100.00;100413.84;4855337;29;20049;-80
2023/12/31 01:19:51;;;;;;;3.70;3.03;;;;;;;7.02;100.00;100410.34;4859898;29;20052;-82
2023/12/31 01:22:20;;;;;;;10.45;3.97;;;;;;;7.00;100.00;100408.59;4861415;29;20053;-80
2023/12/31 01:24:48;;;;;;;6.00;3.60;;;;;;;6.99;100.00;100401.56;4836797;29;20045;-81
2023/12/31 01:27:17;;;;;;;7.82;3.30;;;;;;;6.96;100.00;100398.94;4878440;29;20067;-80
2023/12/31 01:29:45;;;;;;;6.30;3.47;;;;;;;6.93;100.00;100401.53;4870057;29;20044;-81
2023/12/31 01:32:13;;;;;;;3.30;3.00;;;;;;;6.90;100.00;100399.75;4853798;29;20049;-79
2023/12/31 01:34:41;;;;;;;4.45;3.15;;;;;;;6.87;100.00;100399.72;4855775;29;20046;-78
2023/12/31 01:37:08;;;;;;;4.93;3.10;;;;;;;6.85;100.00;100387.47;4875252;29;20048;-79
2023/12/31 01:39:36;;;;;;;4.18;3.47;;;;;;;6.82;100.00;100389.19;4837331;29;20048;-79
2023/12/31 01:42:03;;;;;;;7.57;3.25;;;;;;;6.81;100.00;100381.31;4857327;29;20057;-78
2023/12/31 01:44:31;;;;;;;4.43;3.30;;;;;;;6.79;100.00;100373.44;4847745;29;20053;-78
2023/12/31 01:46:58;;;;;;;7.18;3.20;;;;;;;6.79;100.00;100377.81;4862581;29;20557;-79
2023/12/31 01:49:29;;;;;;;4.43;3.10;;;;;;;6.78;100.00;100378.66;4857312;29;20060;-79
2023/12/31 01:51:57;;;;;;;4.28;3.03;;;;;;;6.77;100.00;100371.69;4874429;29;20064;-79
2023/12/31 01:54:25;;;;;;;5.30;3.28;;;;;;;6.75;100.00;100370.78;4850372;29;20049;-79
2023/12/31 01:56:53;;;;;;;3.33;3.00;;;;;;;6.74;100.00;100371.63;4825314;29;20060;-79
2023/12/31 01:59:21;;;;;;;4.00;2.78;;;;;;;6.74;100.00;100363.78;4850756;29;20403;-79
2023/12/31 02:01:49;;;;;;;8.00;3.47;;;;;;;6.73;100.00;100359.38;4858340;29;20057;-81
2023/12/31 02:04:32;;;;;;;5.40;3.22;;;;;;;6.71;100.00;100354.16;4844582;29;20057;-79
2023/12/31 02:07:00;;;;;;;4.65;3.20;;;;;;;6.69;100.00;100348.03;4857883;29;20053;-79
2023/12/31 02:09:29;;;;;;;3.85;3.13;;;;;;;6.67;100.00;100335.75;4866280;29;20434;-79
2023/12/31 02:11:58;;;;;;;3.63;2.90;;;;;;;6.66;100.00;100334.03;4818802;29;20053;-79
2023/12/31 02:14:25;;;;;;;5.93;3.20;;;;;;;6.62;100.00;100323.50;4849286;29;20116;-79
2023/12/31 02:16:53;;;;;;;3.83;3.40;;;;;;;6.60;100.00;100320.00;4842811;29;20052;-79
2023/12/31 02:19:20;;;;;;;5.05;3.60;;;;;;;6.59;100.00;100317.34;4858329;29;20045;-80
2023/12/31 02:21:48;;;;;;;3.55;2.95;;;;;;;6.57;100.00;100316.47;4858034;29;20061;-79
2023/12/31 02:24:19;;;;;;;4.65;3.05;;;;;;;6.55;100.00;100305.09;4875498;29;20056;-80
2023/12/31 02:26:46;;;;;;;3.67;3.03;;;;;;;6.55;100.00;100312.94;4831835;29;23162;-78
2023/12/31 02:29:14;;;;;;;4.10;2.85;;;;;;;6.55;100.00;100299.88;4851751;29;20049;-78
2023/12/31 02:31:42;;;;;;;5.30;3.00;;;;;;;6.53;100.00;100296.34;4857508;29;20073;-80
2023/12/31 02:34:09;;;;;;;4.65;3.42;;;;;;;6.54;100.00;100287.63;4852668;29;20053;-79
2023/12/31 02:36:37;;;;;;;3.80;2.88;;;;;;;6.53;100.00;100286.75;4864564;29;20061;-80
2023/12/31 02:39:05;;;;;;;4.28;3.10;;;;;;;6.53;100.00;100285.88;4858476;29;20053;-79
2023/12/31 02:41:34;;;;;;;3.13;2.80;;;;;;;6.53;100.00;100284.13;4822248;29;20056;-78
2023/12/31 02:44:02;;;;;;;4.30;3.00;;;;;;;6.54;100.00;100275.44;4843503;29;20057;-78
2023/12/31 02:46:29;;;;;;;6.18;3.38;;;;;;;6.54;100.00;100266.69;4850725;29;20041;-79
2023/12/31 02:48:57;;;;;;;5.63;2.72;;;;;;;6.55;100.00;100265.81;4849800;29;20053;-80
2023/12/31 02:51:24;;;;;;;3.15;2.80;;;;;;;6.55;100.00;100264.09;4858593;29;20049;-79
2023/12/31 02:53:52;;;;;;;9.63;2.88;;;;;;;6.56;100.00;100252.75;4857797;29;20072;-78
2023/12/31 02:56:19;;;;;;;2.60;2.30;;;;;;;6.55;100.00;100253.59;4858354;29;20064;-81
2023/12/31 02:58:47;;;;;;;4.30;2.83;;;;;;;6.55;100.00;100252.75;4824281;29;20045;-79
2023/12/31 03:01:15;;;;;;;3.22;2.42;;;;;;;6.55;100.00;100244.88;4872635;29;20617;-78
2023/12/31 03:03:42;;;;;;;3.58;2.13;;;;;;;6.55;100.00;100237.03;4847973;29;20037;-78
2023/12/31 03:06:15;;;;;;;2.97;2.03;;;;;;;6.55;100.00;100237.03;4877959;29;20053;-78
2023/12/31 03:08:42;;;;;;;2.30;1.90;;;;;;;6.55;100.00;100232.66;4873371;29;20072;-80
2023/12/31 03:11:10;;;;;;;2.63;2.05;;;;;;;6.55;100.00;100221.31;4862141;29;20482;-80
2023/12/31 03:13:37;;;;;;;2.50;2.30;;;;;;;6.55;100.00;100213.47;4820441;29;20522;-79
2023/12/31 03:16:05;;;;;;;4.38;2.08;;;;;;;6.55;100.00;100209.09;4864562;29;20056;-79
2023/12/31 03:18:35;;;;;;;2.33;1.98;;;;;;;6.54;100.00;100202.13;4845025;29;20057;-79
2023/12/31 03:21:03;;;;;;;2.78;2.10;;;;;;;6.53;100.00;100191.66;4858643;29;20049;-79
2023/12/31 03:23:30;;;;;;;2.67;1.70;;;;;;;6.52;100.00;100184.63;4860537;29;20479;-79
2023/12/31 03:25:59;;;;;;;4.28;1.83;;;;;;;6.52;100.00;100175.06;4860539;29;20060;-78
2023/12/31 03:28:27;;;;;;;3.58;1.67;;;;;;;6.53;100.00;100182.03;4838018;29;20060;-78
2023/12/31 03:30:55;;;;;;;2.67;1.63;;;;;;;6.54;100.00;100162.88;4845190;29;20045;-80
2023/12/31 03:33:23;;;;;;;2.00;1.90;;;;;;;6.55;100.00;100167.22;4851647;29;20051;-80
2023/12/31 03:35:51;;;;;;;1.55;1.45;;;;;;;6.56;100.00;100168.09;4870086;29;20057;-78
2023/12/31 03:38:18;;;;;;;2.25;1.42;;;;;;;6.56;100.00;100150.66;4862705;29;20064;-79
2023/12/31 03:40:46;;;;;;;1.33;1.20;;;;;;;6.56;100.00;100161.13;4857223;29;20084;-80
2023/12/31 03:43:13;;;;;;;4.20;1.67;;;;;;;6.57;100.00;100144.56;4870586;29;20049;-78
2023/12/31 03:45:41;;;;;;;4.93;1.80;;;;;;;6.58;100.00;100143.69;4825353;29;20052;-79
2023/12/31 03:48:08;;;;;;;2.38;1.67;;;;;;;6.57;100.00;100134.09;4856392;29;20425;-79
2023/12/31 03:50:36;;;;;;;5.30;1.50;;;;;;;6.58;100.00;100135.84;4851600;29;20586;-80
2023/12/31 03:53:04;;;;;;;1.70;1.60;;;;;;;6.58;100.00;100135.84;4859750;29;20057;-80
2023/12/31 03:55:33;;;;;;;4.00;3.00;;;;;;;6.58;100.00;100135.84;4860711;29;20053;-79
2023/12/31 03:58:01;;;;;;;2.85;2.20;;;;;;;6.58;100.00;100134.97;4878044;29;20048;-80
2023/12/31 04:00:28;;;;;;;2.10;1.60;;;;;;;6.58;100.00;100128.00;4835015;29;20400;-79
2023/12/31 04:02:56;;;;;;;3.40;1.67;;;;;;;6.59;100.00;100128.88;4845044;29;20062;-79
2023/12/31 04:05:23;;;;;;;2.17;1.75;;;;;;;6.58;100.00;100128.00;4851003;29;20052;-81
2023/12/31 04:07:50;;;;;;;2.90;1.50;;;;;;;6.59;100.00;100115.78;4870612;29;20052;-78
2023/12/31 04:10:18;;;;;;;3.15;1.55;;;;;;;6.59;100.00;100123.63;4860276;29;20052;-78
2023/12/31 04:12:46;;;;;;;1.30;1.30;;;;;;;6.57;100.00;100115.75;4884213;29;20569;-78
2023/12/31 04:15:13;;;;;;;1.42;1.33;;;;;;;6.55;100.00;100112.25;4853031;29;20069;-79
2023/12/31 04:17:41;;;;;;;3.10;1.77;;;;;;;6.53;100.00;100098.28;4821009;29;20597;-79
2023/12/31 04:20:09;;;;;;;3.35;2.08;;;;;;;6.52;100.00;100096.53;4865639;29;20056;-79
2023/12/31 04:22:37;;;;;;;2.30;1.50;;;;;;;6.52;100.00;100096.53;4850847;29;20064;-79
2023/12/31 04:25:05;;;;;;;3.33;1.90;;;;;;;6.51;100.00;100094.78;4878179;29;20067;-80
2023/12/31 04:27:38;;;;;;;2.17;1.70;;;;;;;6.52;100.00;100087.78;4861123;29;20045;-78
2023/12/31 04:30:06;;;;;;;1.92;1.77;;;;;;;6.52;100.00;100082.56;4838725;29;20487;-79
2023/12/31 04:32:34;;;;;;;3.13;1.88;;;;;;;6.51;100.00;100071.22;4822579;29;20045;-79
2023/12/31 04:35:05;;;;;;;3.30;1.67;;;;;;;6.51;100.00;100071.22;4868938;29;20061;-79
2023/12/31 04:37:32;;;;;;;4.18;2.10;;;;;;;6.51;100.00;100057.25;4863513;29;20048;-78
2023/12/31 04:40:01;;;;;;;4.15;1.98;;;;;;;6.53;100.00;100051.16;4891149;29;20056;-78
2023/12/31 04:42:29;;;;;;;2.13;1.88;;;;;;;6.54;100.00;100045.06;4855846;29;20053;-80
2023/12/31 04:44:59;;;;;;;2.53;2.15;;;;;;;6.55;100.00;100035.47;4866938;29;20515;-79
2023/12/31 04:47:31;;;;;;;1.88;1.60;;;;;;;6.55;100.00;100040.72;4816434;29;20056;-81
2023/12/31 04:49:58;;;;;;;3.88;2.08;;;;;;;6.55;100.00;100036.34;4859236;29;20049;-79
2023/12/31 04:52:26;;;;;;;3.22;2.38;;;;;;;6.55;100.00;100025.00;4849131;29;20045;-78
2023/12/31 04:54:53;;;;;;;4.30;2.00;;;;;;;6.56;100.00;100018.88;4868791;29;20052;-79
2023/12/31 04:57:21;;;;;;;2.95;2.10;;;;;;;6.57;100.00;100018.91;4855912;29;20396;-79
2023/12/31 04:59:49;;;;;;;6.30;2.08;;;;;;;6.57;100.00;100018.91;4850475;29;20052;-79
2023/12/31 05:02:16;;;;;;;4.78;2.28;;;;;;;6.59;100.00;100019.78;4800654;29;20160;-79
2023/12/31 05:04:44;;;;;;;3.08;2.20;;;;;;;6.59;100.00;100011.94;4855164;29;20067;-79
2023/12/31 05:07:11;;;;;;;2.30;2.10;;;;;;;6.60;100.00;100015.44;4863579;29;20064;-79
2023/12/31 05:09:39;;;;;;;4.30;2.38;;;;;;;6.60;100.00;100011.06;4849498;29;20399;-80
2023/12/31 05:12:06;;;;;;;2.13;1.48;;;;;;;6.62;100.00;99998.88;4856556;29;20584;-80
2023/12/31 05:14:34;;;;;;;2.60;1.85;;;;;;;6.63;100.00;99994.50;4857187;29;20055;-79
2023/12/31 05:17:01;;;;;;;1.70;1.60;;;;;;;6.64;100.00;99985.78;4841955;29;20064;-80
2023/12/31 05:19:29;;;;;;;2.58;2.00;;;;;;;6.65;100.00;99987.53;4839379;29;20048;-80
2023/12/31 05:21:57;;;;;;;3.65;2.10;;;;;;;6.67;100.00;99979.69;4857335;29;20395;-80
2023/12/31 05:24:24;;;;;;;2.80;2.30;;;;;;;6.68;100.00;99971.84;4837331;29;20061;-79
2023/12/31 05:26:51;;;;;;;3.22;2.05;;;;;;;6.68;100.00;99958.75;4852646;29;20504;-78
2023/12/31 05:29:19;;;;;;;3.83;2.33;;;;;;;6.70;100.00;99957.00;4855008;29;20049;-78
2023/12/31 05:31:47;;;;;;;4.05;1.90;;;;;;;6.71;100.00;99950.03;4855710;29;20420;-79
2023/12/31 05:34:14;;;;;;;4.65;1.80;;;;;;;6.73;100.00;99945.66;4798025;29;20427;-80
2023/12/31 05:36:41;;;;;;;3.22;2.20;;;;;;;6.75;100.00;99946.59;4857374;29;20052;-79
2023/12/31 05:39:09;;;;;;;2.42;1.98;;;;;;;6.75;100.00;99942.22;4847967;29;20053;-78
2023/12/31 05:41:37;;;;;;;2.90;2.20;;;;;;;6.77;100.00;99936.97;4857264;29;20419;-79
2023/12/31 05:44:05;;;;;;;2.72;2.17;;;;;;;6.77;100.00;99930.00;4865402;29;20064;-79
2023/12/31 05:46:33;;;;;;;3.97;2.17;;;;;;;6.79;100.00;99916.91;4871533;29;20675;-79
2023/12/31 05:49:00;;;;;;;2.95;1.88;;;;;;;6.80;100.00;99914.28;4849562;29;20042;-78
2023/12/31 05:51:28;;;;;;;3.65;2.50;;;;;;;6.81;100.00;99909.94;4831599;29;20045;-78
2023/12/31 05:53:56;;;;;;;3.63;2.50;;;;;;;6.82;100.00;99896.84;4855977;29;20434;-79
2023/12/31 05:56:23;;;;;;;2.40;2.10;;;;;;;6.82;100.00;99891.63;4845328;29;20504;-79
2023/12/31 05:58:51;;;;;;;2.15;1.92;;;;;;;6.84;100.00;99886.34;4858844;29;20049;-79
2023/12/31 06:01:21;;;;;;;2.40;2.20;;;;;;;6.84;100.00;99878.50;4855123;29;20049;-78
2023/12/31 06:03:49;;;;;;;2.35;2.00;;;;;;;6.88;100.00;99879.38;4857560;29;20060;-79
2023/12/31 06:06:17;;;;;;;2.85;2.28;;;;;;;6.88;100.00;99871.53;4823632;29;27121;-78
2023/12/31 06:08:45;;;;;;;1.92;1.83;;;;;;;6.88;100.00;99869.81;4842556;29;20507;-78
2023/12/31 06:11:12;;;;;;;4.65;2.65;;;;;;;6.88;100.00;99861.94;4832944;29;20518;-79
2023/12/31 06:13:40;;;;;;;4.15;2.10;;;;;;;6.90;100.00;99857.59;4873143;29;20058;-78
2023/12/31 06:16:07;;;;;;;1.80;1.60;;;;;;;6.91;100.00;99855.84;4856808;29;20053;-79
2023/12/31 06:18:35;;;;;;;10.23;2.45;;;;;;;6.90;100.00;99852.34;4872829;29;20056;-78
2023/12/31 06:21:04;;;;;;;2.60;2.40;;;;;;;6.90;100.00;99840.97;4849560;29;20053;-78
2023/12/31 06:23:32;;;;;;;2.28;2.08;;;;;;;6.91;100.00;99837.50;4829713;29;20052;-79
2023/12/31 06:25:59;;;;;;;2.10;1.95;;;;;;;6.91;100.00;99851.47;4835866;29;20056;-79
2023/12/31 06:28:26;;;;;;;2.33;2.13;;;;;;;6.92;100.00;99847.09;4855060;29;20060;-79
2023/12/31 06:30:54;;;;;;;4.25;2.47;;;;;;;6.91;100.00;99846.22;4856958;29;20060;-78
2023/12/31 06:33:24;;;;;;;4.82;1.95;;;;;;;6.92;100.00;99839.22;4874486;29;20403;-78
2023/12/31 06:35:52;;;;;;;2.50;2.30;;;;;;;6.91;100.00;99822.66;4859627;29;20045;-78
2023/12/31 06:38:19;;;;;;;2.17;1.85;;;;;;;6.92;100.00;99839.22;4836657;29;20370;-78
2023/12/31 06:40:46;;;;;;;4.65;2.30;;;;;;;6.93;100.00;99820.91;4861125;29;20411;-78
2023/12/31 06:43:14;;;;;;;6.38;2.33;;;;;;;6.94;100.00;99821.81;4850277;29;20061;-80
2023/12/31 06:45:42;;;;;;;3.22;2.10;;;;;;;6.94;100.00;99812.19;4861843;29;20057;-80
2023/12/31 06:48:09;;;;;;;3.42;1.88;;;;;;;6.94;100.00;99817.44;4861169;29;20411;-79
2023/12/31 06:50:37;;;;;;;3.08;2.35;;;;;;;6.95;100.00;99819.16;4879511;29;20049;-78
2023/12/31 06:53:05;;;;;;;2.55;1.85;;;;;;;6.95;100.00;99813.94;4837898;29;20056;-78
2023/12/31 06:55:33;;;;;;;2.33;2.00;;;;;;;6.97;100.00;99817.41;4872284;29;20052;-80
2023/12/31 06:58:01;;;;;;;3.88;2.15;;;;;;;6.98;100.00;99808.69;4858334;29;20057;-79
2023/12/31 07:00:28;;;;;;;4.15;2.30;;;;;;;6.97;100.00;99809.56;4875974;29;20057;-78
2023/12/31 07:02:56;;;;;;;3.50;2.25;;;;;;;6.99;100.00;99804.31;4872787;29;20444;-79
2023/12/31 07:05:24;;;;;;;2.92;2.20;;;;;;;6.98;100.00;99797.38;4854497;29;20069;-79
2023/12/31 07:07:52;;;;;;;3.90;2.20;;;;;;;6.99;100.00;99805.22;4846577;29;20060;-80
2023/12/31 07:10:20;;;;;;;2.33;2.13;;;;;;;6.99;100.00;99792.13;4829209;29;20426;-79
2023/12/31 07:12:48;;;;;;;2.38;2.00;;;;;;;6.99;100.00;99779.03;4870902;29;20049;-79
2023/12/31 07:15:16;;;;;;;2.50;2.05;;;;;;;7.01;100.00;99784.25;4848770;29;20060;-79
2023/12/31 07:17:43;;;;;;;3.33;2.10;;;;;;;7.01;100.00;99781.63;4860215;29;20060;-78
2023/12/31 07:20:11;;;;;;;2.42;1.90;;;;;;;7.01;100.00;99779.91;4858817;29;20060;-80
2023/12/31 07:22:39;;;;;;;3.10;2.25;;;;;;;7.00;100.00;99772.91;4844068;29;20052;-80
2023/12/31 07:25:07;;;;;;;2.90;2.60;;;;;;;7.00;100.00;99770.28;4837350;29;20040;-78
2023/12/31 07:27:34;;;;;;;2.33;2.08;;;;;;;7.02;100.00;99767.66;4860666;29;20060;-79
2023/12/31 07:30:02;;;;;;;1.95;1.83;;;;;;;7.01;100.00;99769.44;4860565;29;20047;-79
2023/12/31 07:32:30;;;;;;;2.47;2.28;;;;;;;7.03;100.00;99759.81;4858823;29;20060;-79
2023/12/31 07:34:57;;;;;;;2.72;2.42;;;;;;;7.02;100.00;99750.19;4861156;29;20060;-78
2023/12/31 07:37:25;;;;;;;2.03;1.85;;;;;;;7.02;100.00;99747.56;4858694;29;20057;-78
2023/12/31 07:39:54;;;;;;;2.65;2.10;;;;;;;7.02;100.00;99751.97;4870071;29;20045;-79
2023/12/31 07:42:21;;;;;;;2.53;2.00;;;;;;;7.00;100.00;99736.22;4839574;29;20057;-80
2023/12/31 07:44:50;;;;;;;3.65;2.10;;;;;;;7.00;100.00;99746.72;4866319;29;20048;-80
2023/12/31 07:47:17;;;;;;;2.33;2.13;;;;;;;7.00;100.00;99741.47;4856852;29;20057;-80
2023/12/31 07:49:45;;;;;;;2.80;2.28;;;;;;;7.02;100.00;99736.25;4859888;29;20495;-80
2023/12/31 07:52:14;;;;;;;2.20;2.00;;;;;;;7.02;100.00;99736.25;4873133;29;20044;-79
2023/12/31 07:54:42;;;;;;;2.42;2.22;;;;;;;7.01;100.00;99727.53;4851549;29;20048;-78
2023/12/31 07:57:09;;;;;;;1.95;1.83;;;;;;;7.01;100.00;99727.53;4837504;29;20045;-78
2023/12/31 07:59:38;;;;;;;2.47;1.95;;;;;;;7.02;100.00;99731.00;4848655;29;20049;-79
2023/12/31 08:02:05;;;;;;;2.05;1.95;;;;;;;7.03;100.00;99724.88;4857520;29;20053;-78
2023/12/31 08:04:33;;;;;;;2.97;1.83;;;;;;;7.04;100.00;99716.16;4858218;29;20045;-79
2023/12/31 08:07:03;;;;;;;2.03;1.83;;;;;;;7.04;100.00;99713.53;4857426;29;20423;-78
2023/12/31 08:09:31;;;;;;;2.58;2.05;;;;;;;7.05;100.00;99709.16;4857855;29;20057;-80
2023/12/31 08:11:59;;;;;;;1.95;1.85;;;;;;;7.07;100.00;99717.88;4822560;29;20072;-78
2023/12/31 08:14:26;;;;;;;2.03;1.75;;;;;;;7.06;100.00;99716.16;4849134;29;20049;-78
2023/12/31 08:16:54;;;;;;;2.58;1.90;;;;;;;7.07;100.00;99720.50;4843158;29;20447;-78
2023/12/31 08:19:22;;;;;;;1.88;1.77;;;;;;;7.10;100.00;99712.66;4857708;29;20033;-78
2023/12/31 08:21:50;;;;;;;3.10;2.10;;;;;;;7.11;100.00;99717.03;4849845;29;20052;-81
2023/12/31 08:24:20;;;;;;;2.00;1.90;;;;;;;7.12;100.00;99696.06;4865820;29;20484;-77
2023/12/31 08:26:48;;;;;;;2.15;1.88;;;;;;;7.14;100.00;99689.06;4834256;29;20067;-78
2023/12/31 08:29:15;;;;;;;3.28;1.70;;;;;;;7.15;100.00;99690.81;4866254;29;20044;-80
2023/12/31 08:31:49;;;;;;;4.55;2.03;;;;;;;7.17;100.00;99693.44;4875440;29;20049;-79
2023/12/31 08:34:17;;;;;;;1.95;1.73;;;;;;;7.19;100.00;99689.06;4856715;29;20061;-78
2023/12/31 08:36:44;;;;;;;2.65;1.77;;;;;;;7.20;100.00;99694.31;4858292;29;20053;-80
2023/12/31 08:39:12;;;;;;;2.13;1.92;;;;;;;7.22;100.00;99692.56;4847549;29;20056;-80
2023/12/31 08:41:41;;;;;;;2.42;1.67;;;;;;;7.24;100.00;99700.44;4824511;29;20041;-78
2023/12/31 08:44:08;;;;;;;1.92;1.75;;;;;;;7.26;100.00;99682.94;4869216;29;20566;-80
2023/12/31 08:46:38;;;;;;;2.42;1.88;;;;;;;7.27;100.00;99676.81;4873264;29;20080;-79
2023/12/31 08:49:07;;;;;;;2.03;1.83;;;;;;;7.28;100.00;99680.31;4856171;29;20052;-79
2023/12/31 08:51:34;;;;;;;5.28;1.88;;;;;;;7.29;100.00;99672.44;4870679;29;20144;-79
2023/12/31 08:54:03;;;;;;;1.92;1.70;;;;;;;7.30;100.00;99670.72;4849814;29;20423;-79
2023/12/31 08:56:31;;;;;;;2.80;1.90;;;;;;;7.31;100.00;99668.06;4871686;29;20059;-80
2023/12/31 08:58:58;;;;;;;4.20;1.80;;;;;;;7.32;100.00;99666.34;4826882;29;20064;-79
2023/12/31 09:01:26;;;;;;;3.28;1.70;;;;;;;7.34;100.00;99664.59;4861793;29;20504;-79
2023/12/31 09:03:53;;;;;;;4.25;1.60;;;;;;;7.35;100.00;99643.63;4867228;29;20080;-81
2023/12/31 09:06:21;;;;;;;2.15;1.90;;;;;;;7.36;100.00;99645.34;4874045;29;20055;-80
2023/12/31 09:08:48;;;;;;;1.70;1.60;;;;;;;7.39;100.00;99632.25;4846387;29;20052;-80
2023/12/31 09:11:19;;;;;;;2.13;1.70;;;;;;;7.41;100.00;99634.88;4858315;29;20411;-80
2023/12/31 09:13:47;;;;;;;1.75;1.65;;;;;;;7.44;100.00;99640.09;4838141;29;20049;-79
2023/12/31 09:16:14;;;;;;;2.05;1.80;;;;;;;7.47;100.00;99639.22;4848095;29;20072;-79
2023/12/31 09:18:42;;;;;;;3.35;1.85;;;;;;;7.51;100.00;99630.47;4848097;29;20064;-79
2023/12/31 09:21:09;;;;;;;1.67;1.48;;;;;;;7.55;100.00;99627.81;4856640;29;20538;-79
2023/12/31 09:23:37;;;;;;;2.42;2.22;;;;;;;7.60;100.00;99617.31;4847396;29;20670;-80
2023/12/31 09:26:04;;;;;;;2.45;2.25;;;;;;;7.64;100.00;99618.16;4858902;29;20064;-79
2023/12/31 09:28:31;;;;;;;2.03;1.73;;;;;;;7.69;100.00;99624.25;4822746;29;21765;-78
2023/12/31 09:30:59;;;;;;;1.70;1.60;;;;;;;7.71;100.00;99620.75;4832576;29;20064;-80
2023/12/31 09:33:26;;;;;;;3.00;1.83;;;;;;;7.74;100.00;99623.34;4852630;29;20829;-78
2023/12/31 09:35:54;;;;;;;2.13;1.60;;;;;;;7.77;100.00;99625.97;4865270;29;20069;-78
2023/12/31 09:38:21;;;;;;;2.00;1.63;;;;;;;7.80;100.00;99606.72;4872207;29;20049;-79
2023/12/31 09:40:51;;;;;;;3.03;1.58;;;;;;;7.82;100.00;99610.19;4865950;29;20052;-79
2023/12/31 09:43:20;;;;;;;2.73;1.50;;;;;;;7.86;100.00;99608.44;4871881;29;20055;-80
2023/12/31 09:45:48;;;;;;;2.40;2.15;;;;;;;7.88;100.00;99614.53;4823695;29;20065;-78
2023/12/31 09:48:16;;;;;;;2.55;1.70;;;;;;;7.90;100.00;99603.19;4864703;29;20053;-79
2023/12/31 09:50:43;;;;;;;2.15;1.77;;;;;;;7.92;100.00;99600.53;4847035;29;20057;-79
2023/12/31 09:53:16;;;;;;;2.10;1.80;;;;;;;7.93;100.00;99594.41;4856938;29;20057;-79
2023/12/31 09:55:43;;;;;;;3.17;1.80;;;;;;;7.95;100.00;99584.78;4863049;29;20057;-79
2023/12/31 09:58:11;;;;;;;2.60;1.70;;;;;;;7.94;100.00;99583.91;4868645;29;20530;-79
2023/12/31 10:00:39;;;;;;;1.92;1.83;;;;;;;7.96;100.00;99589.16;4817644;29;20055;-79
2023/12/31 10:03:08;;;;;;;1.92;1.83;;;;;;;7.97;100.00;99577.75;4856399;29;20073;-78
2023/12/31 10:05:38;;;;;;;1.83;1.63;;;;;;;7.98;100.00;99561.16;4861335;29;20063;-79
2023/12/31 10:08:08;;;;;;;2.03;1.88;;;;;;;8.00;100.00;99552.38;4859490;29;20076;-79
2023/12/31 10:10:38;;;;;;;2.80;1.95;;;;;;;8.03;100.00;99558.50;4846157;29;20052;-78
2023/12/31 10:13:14;;;;;;;2.00;1.65;;;;;;;8.06;100.00;99554.09;4873097;29;20052;-79
2023/12/31 10:15:42;;;;;;;1.70;1.60;;;;;;;8.10;100.00;99547.94;4825055;29;20060;-81
2023/12/31 10:18:09;;;;;;;6.72;1.65;;;;;;;8.11;100.00;99541.81;4835851;29;20511;-79
2023/12/31 10:20:38;;;;;;;2.13;1.95;;;;;;;8.15;100.00;99556.66;4861236;29;20040;-79
2023/12/31 10:23:06;;;;;;;2.00;1.90;;;;;;;8.17;100.00;99533.03;4857942;29;20057;-78
2023/12/31 10:25:35;;;;;;;2.85;2.00;;;;;;;8.18;100.00;99535.66;4871427;29;20064;-79
2023/12/31 10:28:04;;;;;;;2.70;1.60;;;;;;;8.21;100.00;99519.00;4849257;29;20519;-79
2023/12/31 10:30:31;;;;;;;2.00;1.80;;;;;;;8.22;100.00;99515.47;4835055;29;20060;-79
2023/12/31 10:33:09;;;;;;;2.50;1.90;;;;;;;8.23;100.00;99511.97;4820627;29;20526;-79
2023/12/31 10:35:37;;;;;;;1.90;1.67;;;;;;;8.25;100.00;99506.72;4830621;29;20053;-79
2023/12/31 10:38:05;;;;;;;1.88;1.75;;;;;;;8.25;100.00;99493.59;4861168;29;20061;-80
2023/12/31 10:40:33;;;;;;;2.30;2.10;;;;;;;8.26;100.00;99490.97;4871593;29;20045;-79
2023/12/31 10:43:07;;;;;;;3.00;1.90;;;;;;;8.28;100.00;99485.66;4862813;29;20049;-79
2023/12/31 10:45:35;;;;;;;3.70;3.38;;;;;;;8.31;100.00;99488.28;4822782;29;20060;-79
2023/12/31 10:48:06;;;;;;;3.30;2.33;;;;;;;8.34;100.00;99486.50;4848659;29;20057;-78
2023/12/31 10:50:39;;;;;;;2.50;1.98;;;;;;;8.37;100.00;99477.72;4847429;29;20056;-78
2023/12/31 10:53:10;;;;;;;1.80;1.70;;;;;;;8.42;100.00;99469.84;4856344;29;20056;-79
2023/12/31 10:55:40;;;;;;;2.08;1.90;;;;;;;8.46;100.00;99472.41;4856156;29;20064;-78
2023/12/31 10:58:09;;;;;;;1.48;1.38;;;;;;;8.49;100.00;99472.41;4833951;29;20064;-78
2023/12/31 11:00:37;;;;;;;3.17;2.20;;;;;;;8.51;100.00;99469.75;4870054;29;20479;-79
2023/12/31 11:03:10;;;;;;;2.05;1.90;;;;;;;8.53;100.00;99473.22;4811670;29;20427;-78
2023/12/31 11:05:41;;;;;;;2.35;1.77;;;;;;;8.55;100.00;99466.22;4838411;29;20048;-77
2023/12/31 11:08:10;;;;;;;3.72;1.92;;;;;;;8.58;100.00;99456.53;4850994;29;20068;-78
2023/12/31 11:10:38;;;;;;;2.28;1.88;;;;;;;8.62;100.00;99465.25;4882276;29;20061;-78
2023/12/31 11:13:06;;;;;;;3.88;2.03;;;;;;;8.65;100.00;99451.22;4867400;29;20056;-78
2023/12/31 11:15:35;;;;;;;2.65;2.15;;;;;;;8.69;100.00;99460.78;4859154;29;20057;-79
2023/12/31 11:18:16;;;;;;;2.35;2.15;;;;;;;8.75;100.00;99442.31;4842121;29;20411;-80
2023/12/31 11:20:52;;;;;;;2.20;1.80;;;;;;;8.81;100.00;99441.38;4849192;29;20045;-78
2023/12/31 11:23:56;;;;;;;2.55;2.13;;;;;;;8.88;100.00;99432.56;4869032;29;20051;-78
2023/12/31 11:26:24;;;;;;;1.90;1.80;;;;;;;8.95;100.00;99428.97;4868590;29;20044;-78
2023/12/31 11:28:53;;;;;;;3.30;2.13;;;;;;;8.97;100.00;99433.31;4861529;29;20147;-80
2023/12/31 11:31:21;;;;;;;2.70;2.30;;;;;;;9.00;100.00;99442.03;4823297;29;20056;-79
2023/12/31 11:33:50;;;;;;;2.42;2.22;;;;;;;9.01;100.00;99431.50;4878041;29;20068;-79